Flight Track Log - Related Links

Times and Time Zones

All times are in EDT time to prevent confusion due to time zone crossing. See the TAM3555 flight status page for this flight to view local times or setup timezone preferences in your user account.

Time Position Orientation Groundspeed Altitude Reporting Facility
EDT Latitude Longitude Course Direction KTS MPH feet Rate Location/Type
Tue 03:21:00 PM -5.1396 -48.1534 175° South  Level Estimated
Tue 03:22:00 PM -5.2412 -48.1447 175° South  Level Estimated
Tue 03:23:00 PM -5.3429 -48.1359 175° South  Level Estimated
Tue 03:24:00 PM -5.4445 -48.1271 175° South  Level Estimated
Tue 03:25:00 PM -5.5461 -48.1184 175° South  Level Estimated
Tue 03:26:00 PM -5.6477 -48.1096 175° South  Level Estimated
Tue 03:27:00 PM -5.7494 -48.1008 175° South  Level Estimated
Tue 03:28:00 PM -5.8510 -48.0920 175° South  Level Estimated
Tue 03:29:00 PM -5.9526 -48.0832 175° South  Level Estimated
Tue 03:30:00 PM -6.0543 -48.0744 175° South  Level Estimated
Tue 03:31:00 PM -6.1559 -48.0657 175° South  Level Estimated
Tue 03:32:00 PM -6.2575 -48.0569 175° South  Level Estimated
Tue 03:33:00 PM -6.3591 -48.0480 175° South  Level Estimated
Tue 03:34:00 PM -6.4608 -48.0392 175° South  Level Estimated
Tue 03:35:00 PM -6.5624 -48.0304 175° South  Level Estimated
Tue 03:36:00 PM -6.6640 -48.0216 175° South  Level Estimated
Tue 03:37:00 PM -6.7657 -48.0128 175° South  Level Estimated
Tue 03:38:00 PM -6.8673 -48.0040 175° South  Level Estimated
Tue 03:39:00 PM -6.9689 -47.9952 175° South  Level Estimated
Tue 03:40:00 PM -7.0706 -47.9864 175° South  Level Estimated
Tue 03:41:00 PM -7.1722 -47.9775 175° South  Level Estimated
Tue 03:42:00 PM -7.2738 -47.9687 175° South  Level Estimated
Tue 03:43:00 PM -7.3755 -47.9599 175° South  Level Estimated
Tue 03:44:00 PM -7.4771 -47.9510 175° South  Level Estimated
Tue 03:45:00 PM -7.5787 -47.9422 175° South  Level Estimated
Tue 03:46:00 PM -7.6803 -47.9333 175° South  Level Estimated
Tue 03:47:00 PM -7.7820 -47.9245 175° South  Level Estimated
Tue 03:48:00 PM -7.8836 -47.9156 175° South  Level Estimated
Tue 03:49:00 PM -7.9852 -47.9067 175° South  Level Estimated
Tue 03:50:00 PM -8.0868 -47.8979 175° South  Level Estimated
Tue 03:51:00 PM -8.1885 -47.8890 175° South  Level Estimated
Tue 03:52:00 PM -8.2901 -47.8801 175° South  Level Estimated
Tue 03:53:00 PM -8.3917 -47.8712 175° South  Level Estimated
Tue 03:54:00 PM -8.4933 -47.8624 175° South  Level Estimated
Tue 03:55:00 PM -8.5949 -47.8535 175° South  Level Estimated
Tue 03:56:00 PM -8.6966 -47.8446 175° South  Level Estimated
Tue 03:57:00 PM -8.7982 -47.8357 175° South  Level Estimated
Tue 03:58:00 PM -8.8998 -47.8268 175° South  Level Estimated
Tue 03:59:00 PM -9.0014 -47.8178 175° South  Level Estimated
Tue 04:00:00 PM -9.1030 -47.8089 175° South  Level Estimated
Tue 04:01:00 PM -9.2047 -47.8000 175° South  Level Estimated
Tue 04:02:00 PM -9.3063 -47.7911 175° South  Level Estimated
Tue 04:03:00 PM -9.4079 -47.7822 175° South  Level Estimated
Tue 04:04:00 PM -9.5095 -47.7732 175° South  Level Estimated
Tue 04:05:00 PM -9.6111 -47.7643 175° South  Level Estimated
Tue 04:06:00 PM -9.7128 -47.7553 175° South  Level Estimated
Tue 04:07:00 PM -9.8144 -47.7464 175° South  Level Estimated
Tue 04:08:00 PM -9.9160 -47.7374 175° South  Level Estimated
Tue 04:09:00 PM -10.0176 -47.7285 175° South  Level Estimated
Tue 04:10:00 PM -10.1192 -47.7195 175° South  Level Estimated
Tue 04:11:00 PM -10.2209 -47.7105 175° South  Level Estimated
Tue 04:12:00 PM -10.3225 -47.7015 175° South  Level Estimated
Tue 04:13:00 PM -10.4241 -47.6925 175° South  Level Estimated
Tue 04:14:00 PM -10.5257 -47.6836 175° South  Level Estimated
Tue 04:15:00 PM -10.6273 -47.6745 175° South  Level Estimated
Tue 04:16:00 PM -10.7290 -47.6656 175° South  Level Estimated
Tue 04:17:00 PM -10.8306 -47.6565 175° South  Level Estimated
Tue 04:18:00 PM -10.9322 -47.6475 175° South  Level Estimated
Tue 04:19:00 PM -11.0338 -47.6385 175° South  Level Estimated
Tue 04:20:00 PM -11.1354 -47.6295 175° South  Level Estimated
Tue 04:21:00 PM -11.2371 -47.6204 175° South  Level Estimated
Tue 04:22:00 PM -11.3387 -47.6114 175° South  Level Estimated
Tue 04:23:00 PM -11.4403 -47.6023 175° South  Level Estimated
Tue 04:24:00 PM -11.5419 -47.5933 175° South  Level Estimated
Tue 04:25:00 PM -11.6435 -47.5842 175° South  Level Estimated
Tue 04:26:00 PM -11.7452 -47.5752 175° South  Level Estimated
Tue 04:27:00 PM -11.8468 -47.5661 175° South  Level Estimated
Tue 04:28:00 PM -11.9484 -47.5570 175° South  Level Estimated
Tue 04:29:00 PM -12.0500 -47.5479 175° South  Level Estimated
Tue 04:30:00 PM -12.1516 -47.5388 175° South  Level Estimated
Tue 04:31:00 PM -12.2532 -47.5297 175° South  Level Estimated
Tue 04:32:00 PM -12.3548 -47.5206 175° South  Level Estimated
Tue 04:33:00 PM -12.4565 -47.5115 175° South  Level Estimated
Tue 04:34:00 PM -12.5581 -47.5024 175° South  Level Estimated
Tue 04:35:00 PM -12.6597 -47.4933 175° South  Level Estimated
Tue 04:36:00 PM -12.7613 -47.4841 175° South  Level Estimated
Tue 04:37:00 PM -12.8629 -47.4750 175° South  Level Estimated
Tue 04:38:00 PM -12.9645 -47.4658 175° South  Level Estimated
Tue 04:39:00 PM -13.0661 -47.4567 175° South  Level Estimated
Tue 04:40:00 PM -13.1677 -47.4475 175° South  Level Estimated
Tue 04:41:00 PM -13.2693 -47.4383 175° South  Level Estimated
Tue 04:42:00 PM -13.3709 -47.4292 175° South  Level Estimated
Tue 04:43:00 PM -13.4726 -47.4200 175° South  Level Estimated
Tue 04:44:00 PM -13.5742 -47.4108 175° South  Level Estimated
Tue 04:45:00 PM -13.6758 -47.4016 175° South  Level Estimated
Tue 04:46:00 PM -13.7774 -47.3923 175° South  Level Estimated
Tue 04:47:00 PM -13.8790 -47.3831 175° South  Level Estimated
Tue 04:48:00 PM -13.9806 -47.3739 175° South  Level Estimated
Tue 04:49:00 PM -14.0822 -47.3647 175° South  Level Estimated
Tue 04:50:00 PM -14.1838 -47.3554 175° South  Level Estimated
Tue 04:51:00 PM -14.2854 -47.3462 175° South  Level Estimated
Tue 04:52:00 PM -14.3870 -47.3369 175° South  Level Estimated
Tue 04:53:00 PM -14.4887 -47.3276 175° South  Level Estimated
Tue 04:54:00 PM -14.5903 -47.3184 175° South  Level Estimated
Tue 04:55:00 PM -14.6919 -47.3091 175° South  Level Estimated
Tue 04:56:00 PM -14.7935 -47.2998 175° South  Level Estimated
Tue 04:57:00 PM -14.8951 -47.2905 175° South  Level Estimated
Tue 04:58:00 PM -14.9967 -47.2812 175° South  Level Estimated
Tue 04:59:00 PM -15.0983 -47.2718 175° South  Level Estimated
Tue 05:00:00 PM -15.1999 -47.2625 175° South  Level Estimated
Tue 05:01:00 PM -15.3015 -47.2532 175° South  Level Estimated
Tue 05:02:00 PM -15.4031 -47.2438 175° South  Level Estimated
Tue 05:03:00 PM -15.5047 -47.2345 175° South  Level Estimated
Tue 05:04:00 PM -15.6063 -47.2251 175° South  Level Estimated
Tue 05:05:00 PM -15.7079 -47.2157 175° South  Level Estimated
Tue 05:06:00 PM -15.8095 -47.2063 175° South  Level Estimated
Tue 05:07:00 PM -15.9111 -47.1969 175° South  Level Estimated
Tue 05:08:00 PM -16.0127 -47.1875 175° South  Level Estimated
Tue 05:09:00 PM -16.1143 -47.1781 175° South  Level Estimated
Tue 05:10:00 PM -16.2159 -47.1687 175° South  Level Estimated
Tue 05:11:00 PM -16.3175 -47.1592 175° South  Level Estimated
Tue 05:12:00 PM -16.4191 -47.1498 175° South  Level Estimated
Tue 05:13:00 PM -16.5207 -47.1404 175° South  Level Estimated
Tue 05:14:00 PM -16.6223 -47.1309 175° South  Level Estimated
Tue 05:15:00 PM -16.7239 -47.1214 175° South  Level Estimated
Tue 05:16:00 PM -16.8255 -47.1119 175° South  Level Estimated
Tue 05:17:00 PM -16.9271 -47.1025 175° South  Level Estimated
Tue 05:18:00 PM -17.0287 -47.0929 175° South  Level Estimated
Tue 05:19:00 PM -17.1303 -47.0834 175° South  Level Estimated
Tue 05:20:00 PM -17.2319 -47.0739 175° South  Level Estimated
Tue 05:21:00 PM -17.3335 -47.0644 175° South  Level Estimated
Tue 05:22:00 PM -17.4351 -47.0548 175° South  Level Estimated
Tue 05:23:00 PM -17.5367 -47.0452 175° South  Level Estimated
Tue 05:24:00 PM -17.6383 -47.0357 175° South  Level Estimated
Tue 05:25:00 PM -17.7399 -47.0261 175° South  Level Estimated
Tue 05:26:00 PM -17.8415 -47.0165 175° South  Level Estimated
Tue 05:27:00 PM -17.9431 -47.0069 175° South  Level Estimated
Tue 05:28:00 PM -18.0447 -46.9973 175° South  Level Estimated
Tue 05:29:00 PM -18.1463 -46.9877 175° South  Level Estimated
Tue 05:30:00 PM -18.2479 -46.9780 175° South  Level Estimated
Tue 05:31:00 PM -18.3494 -46.9684 175° South  Level Estimated
Tue 05:32:00 PM -18.4510 -46.9587 175° South  Level Estimated
Tue 05:33:00 PM -18.5526 -46.9491 175° South  Level Estimated
Tue 05:34:00 PM -18.6542 -46.9394 175° South  Level Estimated
Tue 05:35:00 PM -18.7558 -46.9297 175° South  Level Estimated
Tue 05:36:00 PM -18.8574 -46.9200 175° South  Level Estimated
Tue 05:37:00 PM -18.9590 -46.9103 175° South  Level Estimated
Tue 05:38:00 PM -19.0606 -46.9006 175° South  Level Estimated
Tue 05:39:00 PM -19.1622 -46.8908 175° South  Level Estimated
Tue 05:40:00 PM -19.2638 -46.8811 175° South  Level Estimated
Tue 05:41:00 PM -19.3653 -46.8713 175° South  Level Estimated
Tue 05:42:00 PM -19.4669 -46.8615 175° South  Level Estimated
Tue 05:43:00 PM -19.5685 -46.8517 175° South  Level Estimated
Tue 05:44:00 PM -19.6701 -46.8419 175° South  Level Estimated
Tue 05:45:00 PM -19.7717 -46.8321 175° South  Level Estimated
Tue 05:46:00 PM -19.8733 -46.8223 175° South  Level Estimated
Tue 05:47:00 PM -19.9748 -46.8125 175° South  Level Estimated
Tue 05:48:00 PM -20.0764 -46.8026 175° South  Level Estimated
Tue 05:49:00 PM -20.1982 -46.7908 175° South  Level Estimated
Tue 05:50:00 PM -20.3200 -46.7790 175° South  Level Estimated
Tue 05:51:00 PM -20.4418 -46.7671 175° South  Level Estimated
Tue 05:52:00 PM -20.5636 -46.7552 175° South  Level Estimated
Tue 05:53:00 PM -20.6853 -46.7433 175° South  Level Estimated
Tue 05:54:00 PM -20.8071 -46.7314 175° South  Level Estimated
Tue 05:55:00 PM -20.9289 -46.7195 175° South  Level Estimated
Tue 05:56:00 PM -21.0507 -46.7075 175° South  Level Estimated
Tue 05:57:00 PM -21.1725 -46.6955 175° South  Level Estimated
Tue 05:58:00 PM -21.2942 -46.6835 175° South  Level Estimated
Tue 05:59:00 PM -21.4160 -46.6715 175° South  Level Estimated
Tue 06:00:00 PM -21.5378 -46.6595 175° South  Level Estimated
Tue 06:01:00 PM -21.6596 -46.6474 175° South  Level Estimated
Tue 06:02:00 PM -21.7814 -46.6353 175° South  Level Estimated
Tue 06:03:00 PM -21.9031 -46.6232 175° South  Level Estimated
Tue 06:04:00 PM -22.0249 -46.6111 175° South  Level Estimated
Tue 06:05:00 PM -22.1467 -46.5990 175° South  Level Estimated
Tue 06:06:00 PM -22.2684 -46.5868 175° South  Level Estimated
Tue 06:07:00 PM -22.3902 -46.5746 175° South  Level Estimated
Tue 06:08:00 PM -22.5120 -46.5624 175° South  Level Estimated
Tue 06:09:00 PM -22.6338 -46.5502 175° South  Level Estimated
Tue 06:10:00 PM -22.7555 -46.5379 175° South  Level Estimated

Login

Don't have an account? Register now (free) for customized features, flight alerts, and more!